createdAt,value
2018-12-16T00:00:49.138Z,76.55
2018-12-16T00:01:49.164Z,76.93
2018-12-16T00:02:49.130Z,76.36
2018-12-16T00:03:49.331Z,76.74
2018-12-16T00:04:50.016Z,76.84
2018-12-16T00:05:49.213Z,77.03
2018-12-16T00:06:49.096Z,76.65
2018-12-16T00:07:49.147Z,77.12
2018-12-16T00:08:49.119Z,76.93
2018-12-16T00:09:49.099Z,76.65
2018-12-16T00:10:49.152Z,76.65
2018-12-16T00:11:49.218Z,76.74
2018-12-16T00:12:49.135Z,76.93
2018-12-16T00:13:49.169Z,77.03
2018-12-16T00:14:49.157Z,76.46
2018-12-16T00:15:49.366Z,76.55
2018-12-16T00:16:49.217Z,76.65
2018-12-16T00:17:49.116Z,76.84
2018-12-16T00:18:49.128Z,76.93
2018-12-16T00:19:49.408Z,76.65
2018-12-16T00:20:49.187Z,76.65
2018-12-16T00:21:49.270Z,76.74
2018-12-16T00:22:49.125Z,77.03
2018-12-16T00:23:49.138Z,76.84
2018-12-16T00:24:49.151Z,76.55
2018-12-16T00:25:49.144Z,76.55
2018-12-16T00:26:49.166Z,77.03
2018-12-16T00:27:49.244Z,77.03
2018-12-16T00:28:49.340Z,77.12
2018-12-16T00:29:49.677Z,76.74
2018-12-16T00:30:49.263Z,77.22
2018-12-16T00:31:49.184Z,76.93
2018-12-16T00:32:49.372Z,76.84
2018-12-16T00:33:49.231Z,76.84
2018-12-16T00:34:49.220Z,77.22
2018-12-16T00:35:49.152Z,76.93
2018-12-16T00:36:49.163Z,76.55
2018-12-16T00:37:49.206Z,76.74
2018-12-16T00:38:49.270Z,76.27
2018-12-16T00:39:49.189Z,76.55
2018-12-16T00:40:49.173Z,76.27
2018-12-16T00:41:49.205Z,76.08
2018-12-16T00:42:49.272Z,76.17
2018-12-16T00:43:49.205Z,75.79
2018-12-16T00:44:49.189Z,75.79
2018-12-16T00:45:49.190Z,75.89
2018-12-16T00:46:49.192Z,75.70
2018-12-16T00:47:49.181Z,75.89
2018-12-16T00:48:49.238Z,75.89
2018-12-16T00:49:49.202Z,75.89
2018-12-16T00:50:49.200Z,75.89
2018-12-16T00:51:49.911Z,75.13
2018-12-16T00:52:49.538Z,75.79
2018-12-16T00:53:49.233Z,75.70
2018-12-16T00:54:49.273Z,75.70
2018-12-16T00:55:49.351Z,75.89
2018-12-16T00:56:49.292Z,75.51
2018-12-16T00:57:49.212Z,75.42
2018-12-16T00:58:50.159Z,75.60
2018-12-16T00:59:49.231Z,74.95
2018-12-16T01:00:49.244Z,75.51
2018-12-16T01:01:49.229Z,75.23
2018-12-16T01:02:49.254Z,74.75
2018-12-16T01:03:49.237Z,74.66
2018-12-16T01:04:49.294Z,74.75
2018-12-16T01:05:49.285Z,74.75
2018-12-16T01:06:49.256Z,74.66
2018-12-16T01:07:49.247Z,74.28
2018-12-16T01:08:49.320Z,74.28
2018-12-16T01:09:49.335Z,74.66
2018-12-16T01:10:49.316Z,74.47
2018-12-16T01:11:49.267Z,73.80
2018-12-16T01:12:49.267Z,73.80
2018-12-16T01:13:49.269Z,73.61
2018-12-16T01:14:49.303Z,73.80
2018-12-16T01:15:49.393Z,73.52
2018-12-16T01:16:49.334Z,73.33
2018-12-16T01:17:49.342Z,72.77
2018-12-16T01:18:49.269Z,73.14
2018-12-16T01:19:49.282Z,73.24
2018-12-16T01:20:49.286Z,73.33
2018-12-16T01:21:49.315Z,73.24
2018-12-16T01:22:49.320Z,72.96
2018-12-16T01:23:49.384Z,72.48
2018-12-16T01:24:49.295Z,72.96
2018-12-16T01:25:49.303Z,73.14
2018-12-16T01:26:49.320Z,72.77
2018-12-16T01:27:49.298Z,72.67
2018-12-16T01:28:49.355Z,72.19
2018-12-16T01:29:49.289Z,72.29
2018-12-16T01:30:49.339Z,72.29
2018-12-16T01:31:49.307Z,72.29
2018-12-16T01:32:49.316Z,72.00
2018-12-16T01:33:49.284Z,72.38
2018-12-16T01:34:49.313Z,72.00
2018-12-16T01:35:49.329Z,71.72
2018-12-16T01:36:49.320Z,71.72
2018-12-16T01:37:49.360Z,71.62
2018-12-16T01:38:49.302Z,71.53
2018-12-16T01:39:49.376Z,70.87
2018-12-16T01:40:49.384Z,70.78
2018-12-16T01:41:49.358Z,71.15
2018-12-16T01:42:49.336Z,71.53
2018-12-16T01:43:49.363Z,70.68
2018-12-16T01:44:49.421Z,70.30
2018-12-16T01:45:49.334Z,70.49
2018-12-16T01:46:49.328Z,70.68
2018-12-16T01:47:49.362Z,70.39
2018-12-16T01:48:49.332Z,71.15
2018-12-16T01:49:49.369Z,70.97
2018-12-16T01:50:49.363Z,70.39
2018-12-16T01:51:50.029Z,70.30
2018-12-16T01:52:50.322Z,69.92
2018-12-16T01:53:49.401Z,70.01
2018-12-16T01:54:49.372Z,70.11
2018-12-16T01:55:49.368Z,70.39
2018-12-16T01:56:49.384Z,70.01
2018-12-16T01:57:49.408Z,70.01
2018-12-16T01:58:49.443Z,70.11
2018-12-16T01:59:49.448Z,69.73
2018-12-16T02:00:49.414Z,68.79
2018-12-16T02:01:49.471Z,68.98
2018-12-16T02:02:49.465Z,69.07
2018-12-16T02:03:49.404Z,69.07
2018-12-16T02:04:49.407Z,69.07
2018-12-16T02:05:49.404Z,69.07
2018-12-16T02:06:49.572Z,69.45
2018-12-16T02:07:49.399Z,68.88
2018-12-16T02:08:49.394Z,68.50
2018-12-16T02:09:49.457Z,67.74
2018-12-16T02:10:49.440Z,68.12
2018-12-16T02:11:49.462Z,67.93
2018-12-16T02:12:49.468Z,68.02
2018-12-16T02:13:49.440Z,67.55
2018-12-16T02:14:49.413Z,67.83
2018-12-16T02:15:49.431Z,67.36
2018-12-16T02:16:49.467Z,68.31
2018-12-16T02:17:49.443Z,68.12
2018-12-16T02:18:49.458Z,67.93
2018-12-16T02:19:49.469Z,67.74
2018-12-16T02:20:49.419Z,67.46
2018-12-16T02:21:49.460Z,67.96
2018-12-16T02:22:49.464Z,67.49
2018-12-16T02:23:49.463Z,68.02
2018-12-16T02:24:49.482Z,67.77
2018-12-16T02:25:49.452Z,67.58
2018-12-16T02:26:49.485Z,67.30
2018-12-16T02:27:49.441Z,67.02
2018-12-16T02:28:49.473Z,67.40
2018-12-16T02:29:49.495Z,67.11
2018-12-16T02:30:49.504Z,66.64
2018-12-16T02:31:49.449Z,65.56
2018-12-16T02:32:49.472Z,65.56
2018-12-16T02:33:49.500Z,66.13
2018-12-16T02:34:49.508Z,66.64
2018-12-16T02:35:49.473Z,66.64
2018-12-16T02:36:49.474Z,66.07
2018-12-16T02:37:49.576Z,66.13
2018-12-16T02:38:49.505Z,65.78
2018-12-16T02:39:49.523Z,66.16
2018-12-16T02:40:49.513Z,65.88
2018-12-16T02:41:49.533Z,65.97
2018-12-16T02:42:49.510Z,65.59
2018-12-16T02:43:49.471Z,65.69
2018-12-16T02:44:49.516Z,65.78
2018-12-16T02:45:49.482Z,65.59
2018-12-16T02:46:49.814Z,65.03
2018-12-16T02:47:49.493Z,64.93
2018-12-16T02:48:49.515Z,64.46
2018-12-16T02:49:49.484Z,64.27
2018-12-16T02:50:49.479Z,64.46
2018-12-16T02:51:49.564Z,63.70
2018-12-16T02:52:49.530Z,63.32
2018-12-16T02:53:49.497Z,63.23
2018-12-16T02:54:49.531Z,63.23
2018-12-16T02:55:49.543Z,62.56
2018-12-16T02:56:49.513Z,62.75
2018-12-16T02:57:49.537Z,62.75
2018-12-16T02:58:49.546Z,62.66
2018-12-16T02:59:49.523Z,62.28
2018-12-16T03:00:49.539Z,62.37
2018-12-16T03:01:49.544Z,62.56
2018-12-16T03:02:49.559Z,62.08
2018-12-16T03:03:49.545Z,61.80
2018-12-16T03:04:49.559Z,61.90
2018-12-16T03:05:49.555Z,61.43
2018-12-16T03:06:49.566Z,61.24
2018-12-16T03:07:49.532Z,60.95
2018-12-16T03:08:49.567Z,61.14
2018-12-16T03:09:49.548Z,61.24
2018-12-16T03:10:49.551Z,61.14
2018-12-16T03:11:49.574Z,61.33
2018-12-16T03:12:49.593Z,61.24
2018-12-16T03:13:49.554Z,61.52
2018-12-16T03:14:49.641Z,61.33
2018-12-16T03:15:49.602Z,61.33
2018-12-16T03:16:49.620Z,61.61
2018-12-16T03:17:49.581Z,61.33
2018-12-16T03:18:49.575Z,61.05
2018-12-16T03:19:49.598Z,61.52
2018-12-16T03:20:49.589Z,61.43
2018-12-16T03:21:49.582Z,61.52
2018-12-16T03:22:49.631Z,61.71
2018-12-16T03:23:49.612Z,62.18
2018-12-16T03:24:49.596Z,62.34
2018-12-16T03:25:49.586Z,62.75
2018-12-16T03:26:49.621Z,62.85
2018-12-16T03:27:49.627Z,62.94
2018-12-16T03:28:49.588Z,63.23
2018-12-16T03:29:49.628Z,63.04
2018-12-16T03:30:49.853Z,63.29
2018-12-16T03:31:49.608Z,63.39
2018-12-16T03:32:49.636Z,63.76
2018-12-16T03:33:49.649Z,64.33
2018-12-16T03:34:49.645Z,64.14
2018-12-16T03:35:49.632Z,64.71
2018-12-16T03:36:49.829Z,65.09
2018-12-16T03:37:49.635Z,65.75
2018-12-16T03:38:49.608Z,65.84
2018-12-16T03:39:49.637Z,65.94
2018-12-16T03:40:49.634Z,66.13
2018-12-16T03:41:49.642Z,65.75
2018-12-16T03:42:49.667Z,66.32
2018-12-16T03:43:49.662Z,66.80
2018-12-16T03:44:49.646Z,66.80
2018-12-16T03:45:49.668Z,66.80
2018-12-16T03:46:49.661Z,66.89
2018-12-16T03:47:49.678Z,66.70
2018-12-16T03:48:49.652Z,66.60
2018-12-16T03:49:49.644Z,66.89
2018-12-16T03:50:49.648Z,67.27
2018-12-16T03:51:49.698Z,66.99
2018-12-16T03:52:49.667Z,67.27
2018-12-16T03:53:49.670Z,67.08
2018-12-16T03:54:49.729Z,67.18
2018-12-16T03:55:49.665Z,67.18
2018-12-16T03:56:49.712Z,67.36
2018-12-16T03:57:49.682Z,67.55
2018-12-16T03:58:49.681Z,67.93
2018-12-16T03:59:49.862Z,67.55
2018-12-16T04:00:49.685Z,67.65
2018-12-16T04:01:49.727Z,67.46
2018-12-16T04:02:49.694Z,67.27
2018-12-16T04:03:49.749Z,67.08
2018-12-16T04:04:49.749Z,67.08
2018-12-16T04:05:49.732Z,67.46
2018-12-16T04:06:49.724Z,67.46
2018-12-16T04:07:49.759Z,67.36
2018-12-16T04:08:49.756Z,67.46
2018-12-16T04:09:49.738Z,68.21
2018-12-16T04:10:49.748Z,68.02
2018-12-16T04:11:49.742Z,68.02
2018-12-16T04:12:49.749Z,67.83
2018-12-16T04:13:49.740Z,67.93
2018-12-16T04:14:49.767Z,67.83
2018-12-16T04:15:49.748Z,68.79
2018-12-16T04:16:49.731Z,68.31
2018-12-16T04:17:49.755Z,68.02
2018-12-16T04:18:49.745Z,68.02
2018-12-16T04:19:49.763Z,67.93
2018-12-16T04:20:49.733Z,67.93
2018-12-16T04:21:49.763Z,68.69
2018-12-16T04:22:49.760Z,68.50
2018-12-16T04:23:49.778Z,68.69
2018-12-16T04:24:49.798Z,68.59
2018-12-16T04:25:49.821Z,69.64
2018-12-16T04:26:49.755Z,69.82
2018-12-16T04:27:49.786Z,69.07
2018-12-16T04:28:49.779Z,69.17
2018-12-16T04:29:49.855Z,68.98
2018-12-16T04:30:49.786Z,69.35
2018-12-16T04:31:49.798Z,69.07
2018-12-16T04:32:49.802Z,69.82
2018-12-16T04:33:49.842Z,69.64
2018-12-16T04:34:49.803Z,69.64
2018-12-16T04:35:49.835Z,69.73
2018-12-16T04:36:49.802Z,69.64
2018-12-16T04:37:49.781Z,70.11
2018-12-16T04:38:49.850Z,70.01
2018-12-16T04:39:49.796Z,70.01
2018-12-16T04:40:49.811Z,70.39
2018-12-16T04:41:49.823Z,70.30
2018-12-16T04:42:49.832Z,70.58
2018-12-16T04:43:49.879Z,71.34
2018-12-16T04:44:49.844Z,70.30
2018-12-16T04:45:49.819Z,70.97
2018-12-16T04:46:49.851Z,70.78
2018-12-16T04:47:49.804Z,70.68
2018-12-16T04:48:49.861Z,70.97
2018-12-16T04:49:49.852Z,71.15
2018-12-16T04:50:49.872Z,71.06
2018-12-16T04:51:49.837Z,71.34
2018-12-16T04:52:49.838Z,70.87
2018-12-16T04:53:49.798Z,70.87
2018-12-16T04:54:49.814Z,70.97
2018-12-16T04:55:49.862Z,71.34
2018-12-16T04:56:49.827Z,71.15
2018-12-16T04:57:49.865Z,71.34
2018-12-16T04:58:49.828Z,71.34
2018-12-16T04:59:49.832Z,71.34
2018-12-16T05:00:49.839Z,71.06
2018-12-16T05:01:49.841Z,71.15
2018-12-16T05:02:49.879Z,70.97
2018-12-16T05:03:49.932Z,71.15
2018-12-16T05:04:49.854Z,71.15
2018-12-16T05:05:49.859Z,71.34
2018-12-16T05:06:49.876Z,71.44
2018-12-16T05:07:49.919Z,71.15
2018-12-16T05:08:49.896Z,71.34
2018-12-16T05:09:49.945Z,70.87
2018-12-16T05:10:49.846Z,71.06
2018-12-16T05:11:49.872Z,70.87
2018-12-16T05:12:49.893Z,70.97
2018-12-16T05:13:49.904Z,71.06
2018-12-16T05:14:49.891Z,70.58
2018-12-16T05:15:49.853Z,71.06
2018-12-16T05:16:49.862Z,70.78
2018-12-16T05:17:49.897Z,70.78
2018-12-16T05:18:49.942Z,70.78
2018-12-16T05:19:49.874Z,70.78
2018-12-16T05:20:49.924Z,70.68
2018-12-16T05:21:49.902Z,70.78
2018-12-16T05:22:49.884Z,70.58
2018-12-16T05:23:49.917Z,71.06
2018-12-16T05:24:49.883Z,70.58
2018-12-16T05:25:49.934Z,71.15
2018-12-16T05:26:49.933Z,70.30
2018-12-16T05:27:49.939Z,70.49
2018-12-16T05:28:49.945Z,70.39
2018-12-16T05:29:49.908Z,70.30
2018-12-16T05:30:49.913Z,70.30
2018-12-16T05:31:49.924Z,70.20
2018-12-16T05:32:49.941Z,70.11
2018-12-16T05:33:49.926Z,70.39
2018-12-16T05:34:49.942Z,70.01
2018-12-16T05:35:49.957Z,70.39
2018-12-16T05:36:49.917Z,70.20
2018-12-16T05:37:49.958Z,70.39
2018-12-16T05:38:49.928Z,70.01
2018-12-16T05:39:49.989Z,70.11
2018-12-16T05:40:49.958Z,70.01
2018-12-16T05:41:49.984Z,69.54
2018-12-16T05:42:49.957Z,69.45
2018-12-16T05:43:49.941Z,69.45
2018-12-16T05:44:49.939Z,69.45
2018-12-16T05:45:49.956Z,69.92
2018-12-16T05:46:49.964Z,70.11
2018-12-16T05:47:49.951Z,70.20
2018-12-16T05:48:49.928Z,70.39
2018-12-16T05:49:49.967Z,69.92
2018-12-16T05:50:49.977Z,70.11
2018-12-16T05:51:50.072Z,70.30
2018-12-16T05:52:49.976Z,71.15
2018-12-16T05:53:49.977Z,70.87
2018-12-16T05:54:49.965Z,70.49
2018-12-16T05:55:50.000Z,69.73
2018-12-16T05:56:50.009Z,70.30
2018-12-16T05:57:49.955Z,70.39
2018-12-16T05:58:50.000Z,70.30
2018-12-16T05:59:50.005Z,70.78
2018-12-16T06:00:50.031Z,71.06
2018-12-16T06:01:50.005Z,70.83
2018-12-16T06:02:49.978Z,70.74
2018-12-16T06:03:49.972Z,70.78
2018-12-16T06:04:49.959Z,71.02
2018-12-16T06:05:50.038Z,71.25
2018-12-16T06:06:50.042Z,71.02
2018-12-16T06:07:50.067Z,70.97
2018-12-16T06:08:50.002Z,71.53
2018-12-16T06:09:50.005Z,71.44
2018-12-16T06:10:50.042Z,71.53
2018-12-16T06:11:50.025Z,71.15
2018-12-16T06:12:50.057Z,70.68
2018-12-16T06:13:50.017Z,70.97
2018-12-16T06:14:50.066Z,70.97
2018-12-16T06:15:50.056Z,70.97
2018-12-16T06:16:50.044Z,70.78
2018-12-16T06:17:50.041Z,70.97
2018-12-16T06:18:50.087Z,70.78
2018-12-16T06:19:50.025Z,70.39
2018-12-16T06:20:50.025Z,71.06
2018-12-16T06:21:50.015Z,70.20
2018-12-16T06:22:50.073Z,70.39
2018-12-16T06:23:55.508Z,69.73
2018-12-16T06:24:50.057Z,69.92
2018-12-16T06:25:50.021Z,70.11
2018-12-16T06:26:50.065Z,70.01
2018-12-16T06:27:50.052Z,69.64
2018-12-16T06:28:50.103Z,69.92
2018-12-16T06:29:50.049Z,70.01
2018-12-16T06:30:50.037Z,69.64
2018-12-16T06:31:50.061Z,69.64
2018-12-16T06:32:50.098Z,69.92
2018-12-16T06:33:50.122Z,69.45
2018-12-16T06:34:50.083Z,69.45
2018-12-16T06:35:50.072Z,69.73
2018-12-16T06:36:50.057Z,69.64
2018-12-16T06:37:50.065Z,69.54
2018-12-16T06:38:50.071Z,69.73
2018-12-16T06:39:50.084Z,69.64
2018-12-16T06:40:50.102Z,69.54
2018-12-16T06:41:50.119Z,69.64
2018-12-16T06:42:50.113Z,69.82
2018-12-16T06:43:50.096Z,69.07
2018-12-16T06:44:50.130Z,69.26
2018-12-16T06:45:50.126Z,69.26
2018-12-16T06:46:50.097Z,68.69
2018-12-16T06:47:50.114Z,68.50
2018-12-16T06:48:50.130Z,68.21
2018-12-16T06:49:50.126Z,68.21
2018-12-16T06:50:50.137Z,68.06
2018-12-16T06:51:50.111Z,68.02
2018-12-16T06:52:50.139Z,67.36
2018-12-16T06:53:50.113Z,68.02
2018-12-16T06:54:50.129Z,67.93
2018-12-16T06:55:50.169Z,67.18
2018-12-16T06:56:50.087Z,67.08
2018-12-16T06:57:50.106Z,66.60
2018-12-16T06:58:50.120Z,66.99
2018-12-16T06:59:50.111Z,66.89
2018-12-16T07:00:50.124Z,67.55
2018-12-16T07:01:50.199Z,67.36
2018-12-16T07:02:50.128Z,67.46
2018-12-16T07:03:50.180Z,67.18
2018-12-16T07:04:50.139Z,67.27
2018-12-16T07:05:50.146Z,67.27
2018-12-16T07:06:50.177Z,68.02
2018-12-16T07:07:50.165Z,67.36
2018-12-16T07:08:50.154Z,67.27
2018-12-16T07:09:50.171Z,67.65
2018-12-16T07:10:50.120Z,66.99
2018-12-16T07:11:50.217Z,66.99
2018-12-16T07:12:50.212Z,67.08
2018-12-16T07:13:50.129Z,67.46
2018-12-16T07:14:50.220Z,67.36
2018-12-16T07:15:50.159Z,66.80
2018-12-16T07:16:50.187Z,67.27
2018-12-16T07:17:50.154Z,67.18
2018-12-16T07:18:50.246Z,67.55
2018-12-16T07:19:50.195Z,67.55
2018-12-16T07:20:50.179Z,67.27
2018-12-16T07:21:50.191Z,67.21
2018-12-16T07:22:50.213Z,66.83
2018-12-16T07:23:50.228Z,66.35
2018-12-16T07:24:50.225Z,67.21
2018-12-16T07:25:50.214Z,66.26
2018-12-16T07:26:50.208Z,65.78
2018-12-16T07:27:50.256Z,66.16
2018-12-16T07:28:50.208Z,65.69
2018-12-16T07:29:50.531Z,65.59
2018-12-16T07:30:50.222Z,65.78
2018-12-16T07:31:50.220Z,65.88
2018-12-16T07:32:50.220Z,67.02
2018-12-16T07:33:50.217Z,66.07
2018-12-16T07:34:50.204Z,65.69
2018-12-16T07:35:50.260Z,65.50
2018-12-16T07:36:50.228Z,65.69
2018-12-16T07:37:50.198Z,64.74
2018-12-16T07:38:50.261Z,64.84
2018-12-16T07:39:50.226Z,64.08
2018-12-16T07:40:51.470Z,64.84
2018-12-16T07:41:50.274Z,65.12
2018-12-16T07:42:50.216Z,65.12
2018-12-16T07:43:50.264Z,65.22
2018-12-16T07:44:50.376Z,64.93
2018-12-16T07:45:50.337Z,65.22
2018-12-16T07:46:50.231Z,65.31
2018-12-16T07:47:50.243Z,64.27
2018-12-16T07:48:50.395Z,64.27
2018-12-16T07:49:50.287Z,64.17
2018-12-16T07:50:50.274Z,64.27
2018-12-16T07:51:50.292Z,63.98
2018-12-16T07:52:50.298Z,63.51
2018-12-16T07:53:50.293Z,63.42
2018-12-16T07:54:50.324Z,63.51
2018-12-16T07:55:50.319Z,63.64
2018-12-16T07:56:50.305Z,63.45
2018-12-16T07:57:50.296Z,62.97
2018-12-16T07:58:50.286Z,62.97
2018-12-16T07:59:50.333Z,62.97
2018-12-16T08:00:50.326Z,63.26
2018-12-16T08:01:50.340Z,63.45
2018-12-16T08:02:50.335Z,62.69
2018-12-16T08:03:50.285Z,62.59
2018-12-16T08:04:50.322Z,62.78
2018-12-16T08:05:50.339Z,62.69
2018-12-16T08:06:50.399Z,62.21
2018-12-16T08:07:50.325Z,62.21
2018-12-16T08:08:50.297Z,62.50
2018-12-16T08:09:50.332Z,62.69
2018-12-16T08:10:50.413Z,61.93
2018-12-16T08:11:50.324Z,61.74
2018-12-16T08:12:50.364Z,61.90
2018-12-16T08:13:51.057Z,62.56
2018-12-16T08:14:50.318Z,62.12
2018-12-16T08:15:50.388Z,62.37
2018-12-16T08:16:50.333Z,61.90
2018-12-16T08:17:50.321Z,62.08
2018-12-16T08:18:50.366Z,62.18
2018-12-16T08:19:50.322Z,62.69
2018-12-16T08:20:50.350Z,62.69
2018-12-16T08:21:50.307Z,62.40
2018-12-16T08:22:50.326Z,62.31
2018-12-16T08:23:50.344Z,61.83
2018-12-16T08:24:50.369Z,61.65
2018-12-16T08:25:50.327Z,61.80
2018-12-16T08:26:50.334Z,62.08
2018-12-16T08:27:50.352Z,62.75
2018-12-16T08:28:50.342Z,61.52
2018-12-16T08:29:50.389Z,61.93
2018-12-16T08:30:50.358Z,61.36
2018-12-16T08:31:50.355Z,61.65
2018-12-16T08:32:50.371Z,61.46
2018-12-16T08:33:50.372Z,61.36
2018-12-16T08:34:50.391Z,61.08
2018-12-16T08:35:50.362Z,61.08
2018-12-16T08:36:50.367Z,60.70
2018-12-16T08:37:50.383Z,61.27
2018-12-16T08:38:50.687Z,61.83
2018-12-16T08:39:50.480Z,62.31
2018-12-16T08:40:50.387Z,62.12
2018-12-16T08:41:50.417Z,61.65
2018-12-16T08:42:50.389Z,61.83
2018-12-16T08:43:50.397Z,61.46
2018-12-16T08:44:50.401Z,61.65
2018-12-16T08:45:50.425Z,61.36
2018-12-16T08:46:50.431Z,61.74
2018-12-16T08:47:50.393Z,61.74
2018-12-16T08:48:50.443Z,61.08
2018-12-16T08:49:50.979Z,61.55
2018-12-16T08:50:50.438Z,61.27
2018-12-16T08:51:50.688Z,61.17
2018-12-16T08:52:50.445Z,61.55
2018-12-16T08:53:50.496Z,61.36
2018-12-16T08:54:50.436Z,61.08
2018-12-16T08:55:50.450Z,61.74
2018-12-16T08:56:50.463Z,61.55
2018-12-16T08:57:50.504Z,61.46
2018-12-16T08:58:50.560Z,60.79
2018-12-16T08:59:50.445Z,60.22
2018-12-16T09:00:50.441Z,59.66
2018-12-16T09:01:50.474Z,59.56
2018-12-16T09:02:50.489Z,59.75
2018-12-16T09:03:50.491Z,60.03
2018-12-16T09:04:50.497Z,59.84
2018-12-16T09:05:50.542Z,60.41
2018-12-16T09:06:50.517Z,60.03
2018-12-16T09:07:50.582Z,59.56
2018-12-16T09:08:50.464Z,60.41
2018-12-16T09:09:50.495Z,60.60
2018-12-16T09:10:50.550Z,60.50
2018-12-16T09:11:50.504Z,60.31
2018-12-16T09:12:50.471Z,60.03
2018-12-16T09:13:50.591Z,60.31
2018-12-16T09:14:50.476Z,60.31
2018-12-16T09:15:50.623Z,60.22
2018-12-16T09:16:50.587Z,60.31
2018-12-16T09:17:50.550Z,59.66
2018-12-16T09:18:50.477Z,59.37
2018-12-16T09:19:50.483Z,59.37
2018-12-16T09:20:50.507Z,59.37
2018-12-16T09:21:50.532Z,59.46
2018-12-16T09:22:50.517Z,59.66
2018-12-16T09:23:50.533Z,59.46
2018-12-16T09:24:50.548Z,59.37
2018-12-16T09:25:51.039Z,58.99
2018-12-16T09:26:50.668Z,59.18
2018-12-16T09:27:50.523Z,59.27
2018-12-16T09:28:50.583Z,59.37
2018-12-16T09:29:50.558Z,59.27
2018-12-16T09:30:57.809Z,59.37
2018-12-16T09:31:50.541Z,59.75
2018-12-16T09:32:50.563Z,59.27
2018-12-16T09:33:50.551Z,59.37
2018-12-16T09:34:50.556Z,59.94
2018-12-16T09:35:50.554Z,59.46
2018-12-16T09:36:50.575Z,59.27
2018-12-16T09:37:50.579Z,59.37
2018-12-16T09:38:50.568Z,58.99
2018-12-16T09:39:50.572Z,58.51
2018-12-16T09:40:50.562Z,58.89
2018-12-16T09:41:50.566Z,59.08
2018-12-16T09:42:50.588Z,58.51
2018-12-16T09:43:50.564Z,58.80
2018-12-16T09:44:50.594Z,58.80
2018-12-16T09:45:50.603Z,58.23
2018-12-16T09:46:50.607Z,58.42
2018-12-16T09:47:50.638Z,58.14
2018-12-16T09:48:50.630Z,57.85
2018-12-16T09:49:50.585Z,56.81
2018-12-16T09:50:52.004Z,57.76
2018-12-16T09:51:51.595Z,57.95
2018-12-16T09:52:51.696Z,57.76
2018-12-16T09:53:50.857Z,57.19
2018-12-16T09:54:50.658Z,57.19
2018-12-16T09:55:50.631Z,57.09
2018-12-16T09:56:50.649Z,57.66
2018-12-16T09:57:50.612Z,56.99
2018-12-16T09:58:50.970Z,57.95
2018-12-16T09:59:50.798Z,57.85
2018-12-16T10:00:51.173Z,58.14
2018-12-16T10:01:50.622Z,57.66
2018-12-16T10:02:50.795Z,57.09
2018-12-16T10:03:50.625Z,57.19
2018-12-16T10:04:50.662Z,56.99
2018-12-16T10:05:50.852Z,56.99
2018-12-16T10:06:50.626Z,56.62
2018-12-16T10:07:50.645Z,56.62
2018-12-16T10:08:50.703Z,57.09
2018-12-16T10:09:50.683Z,57.85
2018-12-16T10:10:50.773Z,56.99
2018-12-16T10:11:51.325Z,57.19
2018-12-16T10:12:50.719Z,56.90
2018-12-16T10:13:50.678Z,57.66
2018-12-16T10:14:50.856Z,56.99
2018-12-16T10:15:50.766Z,57.21
2018-12-16T10:16:50.726Z,56.93
2018-12-16T10:17:50.761Z,57.21
2018-12-16T10:18:50.748Z,57.21
2018-12-16T10:19:57.450Z,56.81
2018-12-16T10:21:12.844Z,57.19
2018-12-16T10:21:51.178Z,57.57
2018-12-16T10:22:51.039Z,56.99
2018-12-16T10:23:50.826Z,57.09
2018-12-16T10:24:51.420Z,57.12
2018-12-16T10:25:50.836Z,57.76
2018-12-16T10:26:50.863Z,56.84
2018-12-16T10:27:51.125Z,57.12
2018-12-16T10:28:50.973Z,57.31
2018-12-16T10:29:50.920Z,57.12
2018-12-16T10:30:51.107Z,57.12
2018-12-16T10:31:51.005Z,57.12
2018-12-16T10:32:50.995Z,56.74
2018-12-16T10:33:50.816Z,56.36
2018-12-16T10:34:51.628Z,56.46
2018-12-16T10:35:51.147Z,56.36
2018-12-16T10:36:54.388Z,56.65
2018-12-16T10:37:50.824Z,56.36
2018-12-16T10:38:51.225Z,55.89
2018-12-16T10:39:50.793Z,56.46
2018-12-16T10:40:50.853Z,57.31
2018-12-16T10:41:50.947Z,56.93
2018-12-16T10:42:50.835Z,57.40
2018-12-16T10:43:50.922Z,56.65
2018-12-16T10:44:50.897Z,55.89
2018-12-16T10:45:50.812Z,56.17
2018-12-16T10:46:50.876Z,55.41
2018-12-16T10:47:50.809Z,55.89
2018-12-16T10:48:50.826Z,56.08
2018-12-16T10:49:50.902Z,56.08
2018-12-16T10:50:50.823Z,56.27
2018-12-16T10:51:50.825Z,56.27
2018-12-16T10:52:50.833Z,55.70
2018-12-16T10:53:50.797Z,55.22
2018-12-16T10:54:50.831Z,55.98
2018-12-16T10:55:51.540Z,55.32
2018-12-16T10:56:50.800Z,54.85
2018-12-16T10:57:50.829Z,55.89
2018-12-16T10:58:50.870Z,56.27
2018-12-16T10:59:50.873Z,55.32
2018-12-16T11:00:50.842Z,55.41
2018-12-16T11:01:50.842Z,55.22
2018-12-16T11:02:50.821Z,55.60
2018-12-16T11:03:50.867Z,55.41
2018-12-16T11:04:50.857Z,55.32
2018-12-16T11:05:50.874Z,54.85
2018-12-16T11:06:50.921Z,54.18
2018-12-16T11:07:50.829Z,54.46
2018-12-16T11:08:50.918Z,54.37
2018-12-16T11:09:50.842Z,54.75
2018-12-16T11:10:50.924Z,54.94
2018-12-16T11:11:50.981Z,54.08
2018-12-16T11:12:50.980Z,54.18
2018-12-16T11:13:50.959Z,54.11
2018-12-16T11:14:51.589Z,54.21
2018-12-16T11:15:50.894Z,54.02
2018-12-16T11:16:50.887Z,54.18
2018-12-16T11:17:50.936Z,54.11
2018-12-16T11:18:50.862Z,53.45
2018-12-16T11:19:50.909Z,53.26
2018-12-16T11:20:50.913Z,54.02
2018-12-16T11:21:50.881Z,54.08
2018-12-16T11:22:50.924Z,54.11
2018-12-16T11:23:54.009Z,54.11
2018-12-16T11:24:50.900Z,54.39
2018-12-16T11:25:50.944Z,54.39
2018-12-16T11:26:50.966Z,54.21
2018-12-16T11:27:50.969Z,53.73
2018-12-16T11:28:51.184Z,53.45
2018-12-16T11:29:50.923Z,53.35
2018-12-16T11:30:50.974Z,53.26
2018-12-16T11:31:50.925Z,52.87
2018-12-16T11:32:50.937Z,52.87
2018-12-16T11:33:51.035Z,52.87
2018-12-16T11:34:50.947Z,52.78
2018-12-16T11:35:50.955Z,52.97
2018-12-16T11:36:51.080Z,52.87
2018-12-16T11:37:50.952Z,52.50
2018-12-16T11:38:51.034Z,52.50
2018-12-16T11:39:50.951Z,52.78
2018-12-16T11:40:51.019Z,52.87
2018-12-16T11:41:51.146Z,52.97
2018-12-16T11:42:51.011Z,52.40
2018-12-16T11:43:51.012Z,53.35
2018-12-16T11:44:50.992Z,52.78
2018-12-16T11:45:51.001Z,52.87
2018-12-16T11:46:50.980Z,52.87
2018-12-16T11:47:51.004Z,52.02
2018-12-16T11:48:51.017Z,52.40
2018-12-16T11:49:50.958Z,51.93
2018-12-16T11:50:50.975Z,52.12
2018-12-16T11:51:51.021Z,51.83
2018-12-16T11:52:51.045Z,51.93
2018-12-16T11:53:50.970Z,52.40
2018-12-16T11:54:51.012Z,52.50
2018-12-16T11:55:51.037Z,52.50
2018-12-16T11:56:51.009Z,52.69
2018-12-16T11:57:51.017Z,52.69
2018-12-16T11:58:51.056Z,53.07
2018-12-16T11:59:51.099Z,53.16
2018-12-16T12:00:51.022Z,52.97
2018-12-16T12:01:51.060Z,52.22
2018-12-16T12:02:51.076Z,51.74
2018-12-16T12:03:51.027Z,51.93
2018-12-16T12:04:51.259Z,51.74
2018-12-16T12:05:51.129Z,51.93
2018-12-16T12:06:51.039Z,52.12
2018-12-16T12:07:51.030Z,51.93
2018-12-16T12:08:51.072Z,51.93
2018-12-16T12:09:51.097Z,52.40
2018-12-16T12:10:51.044Z,52.69
2018-12-16T12:11:51.060Z,52.40
2018-12-16T12:12:51.057Z,51.93
2018-12-16T12:13:51.046Z,51.36
2018-12-16T12:14:51.082Z,51.55
2018-12-16T12:15:51.116Z,51.17
2018-12-16T12:16:51.066Z,51.55
2018-12-16T12:17:51.097Z,51.45
2018-12-16T12:18:51.094Z,52.02
2018-12-16T12:19:51.113Z,51.93
2018-12-16T12:20:51.089Z,51.26
2018-12-16T12:21:51.116Z,51.36
2018-12-16T12:22:51.135Z,51.36
2018-12-16T12:23:51.119Z,51.45
2018-12-16T12:24:51.150Z,51.45
2018-12-16T12:25:51.129Z,51.26
2018-12-16T12:26:51.116Z,51.64
2018-12-16T12:27:51.113Z,52.40
2018-12-16T12:28:51.106Z,52.40
2018-12-16T12:29:51.151Z,52.40
2018-12-16T12:30:51.421Z,52.02
2018-12-16T12:31:51.126Z,51.74
2018-12-16T12:32:51.196Z,52.78
2018-12-16T12:33:51.189Z,52.12
2018-12-16T12:34:51.160Z,51.83
2018-12-16T12:35:51.193Z,51.36
2018-12-16T12:36:51.161Z,51.07
2018-12-16T12:37:51.227Z,50.89
2018-12-16T12:38:51.154Z,50.89
2018-12-16T12:39:51.170Z,50.91
2018-12-16T12:40:51.224Z,51.01
2018-12-16T12:41:51.290Z,50.70
2018-12-16T12:42:51.185Z,50.70
2018-12-16T12:43:51.203Z,50.98
2018-12-16T12:44:51.148Z,51.17
2018-12-16T12:45:51.204Z,50.89
2018-12-16T12:46:51.168Z,51.74
2018-12-16T12:47:51.251Z,51.83
2018-12-16T12:48:51.189Z,51.45
2018-12-16T12:49:51.233Z,51.36
2018-12-16T12:50:51.208Z,51.07
2018-12-16T12:51:51.290Z,51.17
2018-12-16T12:52:51.210Z,51.07